sensor_id;sensor_type;location;lat;lon;timestamp;noise_LAeq;noise_LA_min;noise_LA_max;noise_LA01;noise_LA95
49215;Laerm;45943;53.148;8.204;2022-08-19T00:01:32;41.08;36.26;46.29;;
49215;Laerm;45943;53.148;8.204;2022-08-19T00:04:01;40.11;35.29;45.50;;
49215;Laerm;45943;53.148;8.204;2022-08-19T00:06:28;43.06;37.72;50.65;;
49215;Laerm;45943;53.148;8.204;2022-08-19T00:08:55;41.51;35.64;50.18;;
49215;Laerm;45943;53.148;8.204;2022-08-19T00:11:22;42.22;37.29;45.80;;
49215;Laerm;45943;53.148;8.204;2022-08-19T00:13:48;42.67;37.92;52.08;;
49215;Laerm;45943;53.148;8.204;2022-08-19T00:16:16;41.32;37.92;46.57;;
49215;Laerm;45943;53.148;8.204;2022-08-19T00:18:45;41.54;35.64;45.40;;
49215;Laerm;45943;53.148;8.204;2022-08-19T00:21:11;42.73;37.72;49.45;;
49215;Laerm;45943;53.148;8.204;2022-08-19T00:23:37;42.33;38.12;48.92;;
49215;Laerm;45943;53.148;8.204;2022-08-19T00:26:04;41.57;35.96;57.18;;
49215;Laerm;45943;53.148;8.204;2022-08-19T00:28:31;40.07;35.96;45.29;;
49215;Laerm;45943;53.148;8.204;2022-08-19T00:30:59;40.82;36.54;45.96;;
49215;Laerm;45943;53.148;8.204;2022-08-19T00:33:25;42.52;37.05;46.43;;
49215;Laerm;45943;53.148;8.204;2022-08-19T00:35:51;43.89;37.51;50.31;;
49215;Laerm;45943;53.148;8.204;2022-08-19T00:38:17;40.39;34.04;49.11;;
49215;Laerm;45943;53.148;8.204;2022-08-19T00:40:43;40.45;35.96;54.87;;
49215;Laerm;45943;53.148;8.204;2022-08-19T00:43:13;40.46;35.29;49.37;;
49215;Laerm;45943;53.148;8.204;2022-08-19T00:45:43;41.22;36.70;47.31;;
49215;Laerm;45943;53.148;8.204;2022-08-19T00:48:10;41.43;35.64;45.47;;
49215;Laerm;45943;53.148;8.204;2022-08-19T00:50:39;41.67;37.29;46.43;;
49215;Laerm;45943;53.148;8.204;2022-08-19T00:53:10;41.22;37.51;45.25;;
49215;Laerm;45943;53.148;8.204;2022-08-19T00:55:38;40.53;36.26;46.37;;
49215;Laerm;45943;53.148;8.204;2022-08-19T00:58:09;42.03;36.80;46.62;;
49215;Laerm;45943;53.148;8.204;2022-08-19T01:00:37;40.77;34.91;43.42;;
49215;Laerm;45943;53.148;8.204;2022-08-19T01:03:08;40.76;35.64;44.53;;
49215;Laerm;45943;53.148;8.204;2022-08-19T01:05:36;40.27;36.54;44.87;;
49215;Laerm;45943;53.148;8.204;2022-08-19T01:08:04;39.98;35.64;43.58;;
49215;Laerm;45943;53.148;8.204;2022-08-19T01:10:35;40.42;34.94;52.94;;
49215;Laerm;45943;53.148;8.204;2022-08-19T01:13:04;40.69;37.05;44.75;;
49215;Laerm;45943;53.148;8.204;2022-08-19T01:15:33;40.22;36.54;43.34;;
49215;Laerm;45943;53.148;8.204;2022-08-19T01:18:02;40.41;36.54;43.64;;
49215;Laerm;45943;53.148;8.204;2022-08-19T01:20:30;40.97;36.26;44.54;;
49215;Laerm;45943;53.148;8.204;2022-08-19T01:22:57;41.41;35.64;45.96;;
49215;Laerm;45943;53.148;8.204;2022-08-19T01:25:39;40.18;35.64;44.37;;
49215;Laerm;45943;53.148;8.204;2022-08-19T01:28:07;40.80;37.05;49.12;;
49215;Laerm;45943;53.148;8.204;2022-08-19T01:30:34;40.55;37.05;43.79;;
49215;Laerm;45943;53.148;8.204;2022-08-19T01:33:01;40.31;34.91;44.59;;
49215;Laerm;45943;53.148;8.204;2022-08-19T01:35:30;40.19;36.80;42.95;;
49215;Laerm;45943;53.148;8.204;2022-08-19T01:38:03;40.62;36.80;43.79;;
49215;Laerm;45943;53.148;8.204;2022-08-19T01:40:32;40.35;36.26;50.54;;
49215;Laerm;45943;53.148;8.204;2022-08-19T01:42:59;40.75;35.96;44.99;;
49215;Laerm;45943;53.148;8.204;2022-08-19T01:45:28;40.28;35.29;43.19;;
49215;Laerm;45943;53.148;8.204;2022-08-19T01:47:54;41.33;37.51;45.40;;
49215;Laerm;45943;53.148;8.204;2022-08-19T01:50:21;41.74;37.51;45.11;;
49215;Laerm;45943;53.148;8.204;2022-08-19T01:52:47;42.23;37.51;66.15;;
49215;Laerm;45943;53.148;8.204;2022-08-19T01:55:16;61.64;37.51;73.07;;
49215;Laerm;45943;53.148;8.204;2022-08-19T01:57:47;43.09;37.05;49.99;;
49215;Laerm;45943;53.148;8.204;2022-08-19T02:00:17;41.86;37.16;50.12;;
49215;Laerm;45943;53.148;8.204;2022-08-19T02:02:43;42.50;37.92;48.21;;
49215;Laerm;45943;53.148;8.204;2022-08-19T02:05:11;42.47;38.48;47.76;;
49215;Laerm;45943;53.148;8.204;2022-08-19T02:07:38;42.05;37.72;45.36;;
49215;Laerm;45943;53.148;8.204;2022-08-19T02:10:11;62.15;40.18;76.84;;
49215;Laerm;45943;53.148;8.204;2022-08-19T02:12:37;58.55;39.47;76.31;;
49215;Laerm;45943;53.148;8.204;2022-08-19T02:15:04;42.36;38.65;46.26;;
49215;Laerm;45943;53.148;8.204;2022-08-19T02:17:30;41.74;38.12;45.57;;
49215;Laerm;45943;53.148;8.204;2022-08-19T02:19:56;42.69;38.78;45.80;;
49215;Laerm;45943;53.148;8.204;2022-08-19T02:22:23;43.22;39.12;45.99;;
49215;Laerm;45943;53.148;8.204;2022-08-19T02:24:54;43.47;40.83;48.36;;
49215;Laerm;45943;53.148;8.204;2022-08-19T02:27:22;43.58;40.41;47.90;;
49215;Laerm;45943;53.148;8.204;2022-08-19T02:29:50;43.05;39.12;52.72;;
49215;Laerm;45943;53.148;8.204;2022-08-19T02:32:17;42.89;38.81;45.54;;
49215;Laerm;45943;53.148;8.204;2022-08-19T02:34:46;44.17;41.22;46.11;;
49215;Laerm;45943;53.148;8.204;2022-08-19T02:37:12;43.75;38.97;52.64;;
49215;Laerm;45943;53.148;8.204;2022-08-19T02:40:08;44.23;41.13;48.58;;
49215;Laerm;45943;53.148;8.204;2022-08-19T02:42:34;44.46;41.22;59.41;;
49215;Laerm;45943;53.148;8.204;2022-08-19T02:45:00;43.25;39.94;48.67;;
49215;Laerm;45943;53.148;8.204;2022-08-19T02:47:26;44.03;40.30;47.81;;
49215;Laerm;45943;53.148;8.204;2022-08-19T02:49:52;43.29;40.30;47.33;;
49215;Laerm;45943;53.148;8.204;2022-08-19T02:52:18;43.69;40.93;47.55;;
49215;Laerm;45943;53.148;8.204;2022-08-19T02:54:44;43.91;40.30;50.70;;
49215;Laerm;45943;53.148;8.204;2022-08-19T02:57:10;44.16;40.73;51.00;;
49215;Laerm;45943;53.148;8.204;2022-08-19T02:59:36;44.66;41.90;49.36;;
49215;Laerm;45943;53.148;8.204;2022-08-19T03:02:02;44.90;42.82;49.31;;
49215;Laerm;45943;53.148;8.204;2022-08-19T03:04:28;44.82;41.74;51.02;;
49215;Laerm;45943;53.148;8.204;2022-08-19T03:06:55;61.27;41.22;72.73;;
49215;Laerm;45943;53.148;8.204;2022-08-19T03:09:21;60.52;41.03;72.69;;
49215;Laerm;45943;53.148;8.204;2022-08-19T03:11:47;44.13;41.40;47.10;;
49215;Laerm;45943;53.148;8.204;2022-08-19T03:14:13;43.56;41.03;49.17;;
49215;Laerm;45943;53.148;8.204;2022-08-19T03:16:45;43.53;40.41;46.80;;
49215;Laerm;45943;53.148;8.204;2022-08-19T03:19:12;43.26;40.18;46.30;;
49215;Laerm;45943;53.148;8.204;2022-08-19T03:21:39;43.52;40.63;46.02;;
49215;Laerm;45943;53.148;8.204;2022-08-19T03:24:08;59.63;41.13;75.36;;
49215;Laerm;45943;53.148;8.204;2022-08-19T03:26:34;43.45;40.83;53.50;;
49215;Laerm;45943;53.148;8.204;2022-08-19T03:29:04;44.37;41.82;49.26;;
49215;Laerm;45943;53.148;8.204;2022-08-19T03:31:30;44.54;42.42;48.28;;
49215;Laerm;45943;53.148;8.204;2022-08-19T03:33:57;44.35;42.13;49.31;;
49215;Laerm;45943;53.148;8.204;2022-08-19T03:36:25;45.38;42.69;61.68;;
49215;Laerm;45943;53.148;8.204;2022-08-19T03:38:54;56.11;43.01;75.06;;
49215;Laerm;45943;53.148;8.204;2022-08-19T03:41:25;45.02;42.56;51.97;;
49215;Laerm;45943;53.148;8.204;2022-08-19T03:43:52;44.61;42.76;51.71;;
49215;Laerm;45943;53.148;8.204;2022-08-19T03:46:27;45.58;42.76;51.24;;
49215;Laerm;45943;53.148;8.204;2022-08-19T03:48:55;45.68;43.19;51.45;;
49215;Laerm;45943;53.148;8.204;2022-08-19T03:51:28;45.87;43.99;51.41;;
49215;Laerm;45943;53.148;8.204;2022-08-19T03:53:59;45.85;43.64;50.30;;
49215;Laerm;45943;53.148;8.204;2022-08-19T03:56:26;47.47;43.36;56.73;;
49215;Laerm;45943;53.148;8.204;2022-08-19T03:58:54;46.41;43.99;54.68;;
49215;Laerm;45943;53.148;8.204;2022-08-19T04:01:22;46.70;44.32;50.45;;
49215;Laerm;45943;53.148;8.204;2022-08-19T04:03:49;47.43;44.20;54.49;;
49215;Laerm;45943;53.148;8.204;2022-08-19T04:06:19;47.08;44.14;58.54;;
49215;Laerm;45943;53.148;8.204;2022-08-19T04:08:49;45.73;42.49;57.00;;
49215;Laerm;45943;53.148;8.204;2022-08-19T04:11:19;45.10;42.82;55.49;;
49215;Laerm;45943;53.148;8.204;2022-08-19T04:13:50;45.33;42.28;63.19;;
49215;Laerm;45943;53.148;8.204;2022-08-19T04:16:20;45.25;41.82;61.55;;
49215;Laerm;45943;53.148;8.204;2022-08-19T04:18:48;44.74;41.49;60.74;;
49215;Laerm;45943;53.148;8.204;2022-08-19T04:21:20;45.26;41.66;69.10;;
49215;Laerm;45943;53.148;8.204;2022-08-19T04:23:47;44.38;41.90;54.49;;
49215;Laerm;45943;53.148;8.204;2022-08-19T04:26:17;44.33;41.66;59.08;;
49215;Laerm;45943;53.148;8.204;2022-08-19T04:28:44;50.48;39.81;64.16;;
49215;Laerm;45943;53.148;8.204;2022-08-19T04:31:31;54.16;41.82;66.85;;
49215;Laerm;45943;53.148;8.204;2022-08-19T04:33:59;44.85;42.06;60.60;;
49215;Laerm;45943;53.148;8.204;2022-08-19T04:36:29;45.29;42.49;55.26;;
49215;Laerm;45943;53.148;8.204;2022-08-19T04:38:58;45.36;42.63;58.59;;
49215;Laerm;45943;53.148;8.204;2022-08-19T04:41:24;56.53;43.01;70.94;;
49215;Laerm;45943;53.148;8.204;2022-08-19T04:44:09;44.76;41.98;51.60;;
49215;Laerm;45943;53.148;8.204;2022-08-19T04:46:35;44.48;42.21;50.39;;
49215;Laerm;45943;53.148;8.204;2022-08-19T04:49:04;44.39;41.66;53.84;;
49215;Laerm;45943;53.148;8.204;2022-08-19T04:51:33;53.46;41.74;71.55;;
49215;Laerm;45943;53.148;8.204;2022-08-19T04:54:01;44.67;42.13;51.28;;
49215;Laerm;45943;53.148;8.204;2022-08-19T04:56:27;58.50;41.58;72.38;;
49215;Laerm;45943;53.148;8.204;2022-08-19T04:58:55;44.61;42.06;56.44;;
49215;Laerm;45943;53.148;8.204;2022-08-19T05:01:24;44.90;42.35;56.35;;
49215;Laerm;45943;53.148;8.204;2022-08-19T05:03:51;45.23;42.49;67.40;;
49215;Laerm;45943;53.148;8.204;2022-08-19T05:06:20;44.71;42.13;60.99;;
49215;Laerm;45943;53.148;8.204;2022-08-19T05:08:47;44.38;41.40;61.58;;
49215;Laerm;45943;53.148;8.204;2022-08-19T05:11:17;47.27;41.22;70.28;;
49215;Laerm;45943;53.148;8.204;2022-08-19T05:13:44;45.27;41.48;61.32;;
49215;Laerm;45943;53.148;8.204;2022-08-19T05:16:11;45.33;41.90;60.46;;
49215;Laerm;45943;53.148;8.204;2022-08-19T05:18:38;51.95;42.95;82.00;;
49215;Laerm;45943;53.148;8.204;2022-08-19T05:21:23;59.19;43.74;87.26;;
49215;Laerm;45943;53.148;8.204;2022-08-19T05:24:08;51.41;43.55;75.32;;
49215;Laerm;45943;53.148;8.204;2022-08-19T05:26:39;45.72;43.13;59.13;;
49215;Laerm;45943;53.148;8.204;2022-08-19T05:29:07;49.05;42.89;72.24;;
49215;Laerm;45943;53.148;8.204;2022-08-19T05:31:35;48.43;43.74;68.28;;
49215;Laerm;45943;53.148;8.204;2022-08-19T05:34:01;48.34;43.36;69.09;;
49215;Laerm;45943;53.148;8.204;2022-08-19T05:36:34;52.41;44.23;79.04;;
49215;Laerm;45943;53.148;8.204;2022-08-19T05:39:02;58.60;49.80;86.21;;
49215;Laerm;45943;53.148;8.204;2022-08-19T05:41:28;61.22;49.40;80.53;;
49215;Laerm;45943;53.148;8.204;2022-08-19T05:43:57;57.84;49.08;74.31;;
49215;Laerm;45943;53.148;8.204;2022-08-19T05:46:23;67.76;55.95;78.36;;
49215;Laerm;45943;53.148;8.204;2022-08-19T05:48:49;67.53;56.01;90.29;;
49215;Laerm;45943;53.148;8.204;2022-08-19T05:51:16;69.05;56.16;86.94;;
49215;Laerm;45943;53.148;8.204;2022-08-19T05:53:42;74.62;55.59;90.61;;
49215;Laerm;45943;53.148;8.204;2022-08-19T05:56:15;69.08;56.94;91.38;;
49215;Laerm;45943;53.148;8.204;2022-08-19T05:58:43;72.99;58.25;88.86;;
49215;Laerm;45943;53.148;8.204;2022-08-19T06:01:17;74.62;63.25;89.63;;
49215;Laerm;45943;53.148;8.204;2022-08-19T06:03:44;65.93;61.80;73.27;;
49215;Laerm;45943;53.148;8.204;2022-08-19T06:06:12;66.47;61.52;76.67;;
49215;Laerm;45943;53.148;8.204;2022-08-19T06:08:39;66.47;61.31;73.00;;
49215;Laerm;45943;53.148;8.204;2022-08-19T06:11:22;65.72;61.46;73.04;;
49215;Laerm;45943;53.148;8.204;2022-08-19T06:13:51;63.62;52.38;79.30;;
49215;Laerm;45943;53.148;8.204;2022-08-19T06:16:19;59.73;49.23;78.82;;
49215;Laerm;45943;53.148;8.204;2022-08-19T06:18:49;59.00;48.08;71.71;;
49215;Laerm;45943;53.148;8.204;2022-08-19T06:21:22;58.63;46.89;76.99;;
49215;Laerm;45943;53.148;8.204;2022-08-19T06:23:49;61.73;48.44;75.52;;
49215;Laerm;45943;53.148;8.204;2022-08-19T06:26:17;58.72;51.19;70.03;;
49215;Laerm;45943;53.148;8.204;2022-08-19T06:28:45;55.83;47.57;72.02;;
49215;Laerm;45943;53.148;8.204;2022-08-19T06:31:19;56.28;45.11;74.41;;
49215;Laerm;45943;53.148;8.204;2022-08-19T06:33:47;56.36;44.79;71.90;;
49215;Laerm;45943;53.148;8.204;2022-08-19T06:36:21;56.41;45.14;68.23;;
49215;Laerm;45943;53.148;8.204;2022-08-19T06:38:47;55.88;45.50;70.54;;
49215;Laerm;45943;53.148;8.204;2022-08-19T06:41:13;60.68;46.37;73.79;;
49215;Laerm;45943;53.148;8.204;2022-08-19T06:43:39;55.88;45.47;66.39;;
49215;Laerm;45943;53.148;8.204;2022-08-19T06:46:13;57.93;45.83;70.13;;
49215;Laerm;45943;53.148;8.204;2022-08-19T06:48:40;56.23;44.75;68.87;;
49215;Laerm;45943;53.148;8.204;2022-08-19T06:51:06;55.78;45.90;70.01;;
49215;Laerm;45943;53.148;8.204;2022-08-19T06:53:33;62.96;49.99;69.02;;
49215;Laerm;45943;53.148;8.204;2022-08-19T06:55:59;64.64;60.30;68.84;;
49215;Laerm;45943;53.148;8.204;2022-08-19T06:58:29;65.24;60.70;77.22;;
49215;Laerm;45943;53.148;8.204;2022-08-19T07:01:07;63.97;59.55;68.38;;
49215;Laerm;45943;53.148;8.204;2022-08-19T07:03:35;63.22;45.93;72.01;;
49215;Laerm;45943;53.148;8.204;2022-08-19T07:06:04;65.26;54.28;85.96;;
49215;Laerm;45943;53.148;8.204;2022-08-19T07:08:30;48.85;39.94;74.03;;
49215;Laerm;45943;53.148;8.204;2022-08-19T07:10:56;58.18;40.30;74.17;;
49215;Laerm;45943;53.148;8.204;2022-08-19T07:13:23;51.08;41.66;68.61;;
49215;Laerm;45943;53.148;8.204;2022-08-19T07:15:49;46.45;41.98;57.13;;
49215;Laerm;45943;53.148;8.204;2022-08-19T07:18:19;51.28;41.31;70.24;;
49215;Laerm;45943;53.148;8.204;2022-08-19T07:20:47;48.31;41.98;63.62;;
49215;Laerm;45943;53.148;8.204;2022-08-19T07:23:13;58.77;40.06;72.68;;
49215;Laerm;45943;53.148;8.204;2022-08-19T07:25:39;45.10;40.30;67.44;;
49215;Laerm;45943;53.148;8.204;2022-08-19T07:28:05;51.09;40.73;72.81;;
49215;Laerm;45943;53.148;8.204;2022-08-19T07:30:36;50.20;39.81;69.51;;
49215;Laerm;45943;53.148;8.204;2022-08-19T07:33:02;56.04;40.30;69.10;;
49215;Laerm;45943;53.148;8.204;2022-08-19T07:35:29;50.79;40.30;74.38;;
49215;Laerm;45943;53.148;8.204;2022-08-19T07:37:57;46.40;40.93;62.38;;
49215;Laerm;45943;53.148;8.204;2022-08-19T07:40:23;58.13;40.06;72.84;;
49215;Laerm;45943;53.148;8.204;2022-08-19T07:42:50;70.05;40.73;86.62;;
49215;Laerm;45943;53.148;8.204;2022-08-19T07:45:16;45.24;40.41;64.22;;
49215;Laerm;45943;53.148;8.204;2022-08-19T07:47:42;62.97;41.74;80.93;;
49215;Laerm;45943;53.148;8.204;2022-08-19T07:50:10;60.83;51.08;77.12;;
49215;Laerm;45943;53.148;8.204;2022-08-19T07:52:37;65.79;53.14;85.00;;
49215;Laerm;45943;53.148;8.204;2022-08-19T07:55:07;62.06;45.80;72.35;;
49215;Laerm;45943;53.148;8.204;2022-08-19T07:57:33;62.24;46.20;87.37;;
49215;Laerm;45943;53.148;8.204;2022-08-19T07:59:59;62.73;42.21;83.42;;
49215;Laerm;45943;53.148;8.204;2022-08-19T08:02:25;58.87;42.13;71.36;;
49215;Laerm;45943;53.148;8.204;2022-08-19T08:04:51;62.75;40.52;82.43;;
49215;Laerm;45943;53.148;8.204;2022-08-19T08:07:36;58.53;42.69;82.12;;
49215;Laerm;45943;53.148;8.204;2022-08-19T08:10:20;64.32;47.31;91.11;;
49215;Laerm;45943;53.148;8.204;2022-08-19T08:12:47;59.50;42.56;77.01;;
49215;Laerm;45943;53.148;8.204;2022-08-19T08:15:15;62.84;48.14;88.04;;
49215;Laerm;45943;53.148;8.204;2022-08-19T08:17:43;57.92;51.65;74.93;;
49215;Laerm;45943;53.148;8.204;2022-08-19T08:20:10;62.01;50.27;86.58;;
49215;Laerm;45943;53.148;8.204;2022-08-19T08:22:36;67.55;51.94;83.15;;
49215;Laerm;45943;53.148;8.204;2022-08-19T08:25:22;74.02;53.53;90.20;;
49215;Laerm;45943;53.148;8.204;2022-08-19T08:27:49;60.99;52.25;74.68;;
49215;Laerm;45943;53.148;8.204;2022-08-19T08:30:21;62.30;51.67;77.21;;
49215;Laerm;45943;53.148;8.204;2022-08-19T08:32:48;58.57;52.55;80.12;;
49215;Laerm;45943;53.148;8.204;2022-08-19T08:35:16;71.43;53.66;88.03;;
49215;Laerm;45943;53.148;8.204;2022-08-19T08:37:46;59.97;51.83;76.62;;
49215;Laerm;45943;53.148;8.204;2022-08-19T08:43:33;60.43;52.03;75.94;;
49215;Laerm;45943;53.148;8.204;2022-08-19T08:46:01;68.96;54.71;85.89;;
49215;Laerm;45943;53.148;8.204;2022-08-19T08:49:00;67.73;52.95;87.98;;
49215;Laerm;45943;53.148;8.204;2022-08-19T08:52:04;69.32;53.13;88.28;;
49215;Laerm;45943;53.148;8.204;2022-08-19T08:54:35;66.93;52.55;87.36;;
49215;Laerm;45943;53.148;8.204;2022-08-19T08:57:09;68.34;52.88;91.50;;
49215;Laerm;45943;53.148;8.204;2022-08-19T08:59:40;63.20;52.39;83.39;;
49215;Laerm;45943;53.148;8.204;2022-08-19T09:02:07;55.29;52.69;73.91;;
49215;Laerm;45943;53.148;8.204;2022-08-19T09:04:35;55.20;52.83;63.06;;
49215;Laerm;45943;53.148;8.204;2022-08-19T09:07:24;55.69;52.27;67.11;;
49215;Laerm;45943;53.148;8.204;2022-08-19T09:09:56;57.32;53.97;69.92;;
49215;Laerm;45943;53.148;8.204;2022-08-19T09:12:51;55.88;40.73;73.27;;
49215;Laerm;45943;53.148;8.204;2022-08-19T09:15:28;59.82;46.49;64.26;;
49215;Laerm;45943;53.148;8.204;2022-08-19T09:17:59;51.21;40.18;65.21;;
49215;Laerm;45943;53.148;8.204;2022-08-19T09:20:25;49.79;38.30;57.70;;
49215;Laerm;45943;53.148;8.204;2022-08-19T09:22:51;48.61;38.81;63.80;;
49215;Laerm;45943;53.148;8.204;2022-08-19T09:25:20;49.44;39.55;69.76;;
49215;Laerm;45943;53.148;8.204;2022-08-19T09:27:51;49.38;39.27;68.72;;
49215;Laerm;45943;53.148;8.204;2022-08-19T09:30:21;57.12;39.27;73.54;;
49215;Laerm;45943;53.148;8.204;2022-08-19T09:32:50;45.55;42.13;56.78;;
49215;Laerm;45943;53.148;8.204;2022-08-19T09:35:20;50.97;38.12;61.11;;
49215;Laerm;45943;53.148;8.204;2022-08-19T09:37:48;45.61;39.81;60.58;;
49215;Laerm;45943;53.148;8.204;2022-08-19T09:40:15;59.16;39.94;74.15;;
49215;Laerm;45943;53.148;8.204;2022-08-19T09:42:45;44.63;41.22;55.61;;
49215;Laerm;45943;53.148;8.204;2022-08-19T09:45:14;44.60;38.30;58.22;;
49215;Laerm;45943;53.148;8.204;2022-08-19T09:47:40;48.39;38.65;68.51;;
49215;Laerm;45943;53.148;8.204;2022-08-19T09:50:07;45.65;37.72;67.01;;
49215;Laerm;45943;53.148;8.204;2022-08-19T09:52:34;55.04;40.06;70.93;;
49215;Laerm;45943;53.148;8.204;2022-08-19T09:55:06;47.79;38.48;57.12;;
49215;Laerm;45943;53.148;8.204;2022-08-19T09:57:33;51.68;42.06;57.65;;
49215;Laerm;45943;53.148;8.204;2022-08-19T09:59:59;45.53;38.97;56.29;;
49215;Laerm;45943;53.148;8.204;2022-08-19T10:02:25;44.16;38.30;58.38;;
49215;Laerm;45943;53.148;8.204;2022-08-19T10:04:51;46.72;39.12;53.23;;
49215;Laerm;45943;53.148;8.204;2022-08-19T10:07:36;47.17;36.80;76.96;;
49215;Laerm;45943;53.148;8.204;2022-08-19T10:10:04;54.58;39.27;71.88;;
49215;Laerm;45943;53.148;8.204;2022-08-19T10:12:32;46.84;38.65;70.28;;
49215;Laerm;45943;53.148;8.204;2022-08-19T10:14:59;46.06;38.81;57.83;;
49215;Laerm;45943;53.148;8.204;2022-08-19T10:17:26;41.85;38.65;50.12;;
49215;Laerm;45943;53.148;8.204;2022-08-19T10:19:52;42.17;38.81;55.91;;
49215;Laerm;45943;53.148;8.204;2022-08-19T10:22:19;43.02;39.68;50.10;;
49215;Laerm;45943;53.148;8.204;2022-08-19T10:24:48;59.52;39.94;74.62;;
49215;Laerm;45943;53.148;8.204;2022-08-19T10:27:15;42.56;38.81;48.89;;
49215;Laerm;45943;53.148;8.204;2022-08-19T10:29:41;42.88;38.97;58.28;;
49215;Laerm;45943;53.148;8.204;2022-08-19T10:32:09;48.62;38.97;69.78;;
49215;Laerm;45943;53.148;8.204;2022-08-19T10:34:37;45.12;39.68;63.17;;
49215;Laerm;45943;53.148;8.204;2022-08-19T10:37:05;42.53;38.81;57.25;;
49215;Laerm;45943;53.148;8.204;2022-08-19T10:39:33;41.97;38.30;50.03;;
49215;Laerm;45943;53.148;8.204;2022-08-19T10:42:04;57.92;38.13;72.94;;
49215;Laerm;45943;53.148;8.204;2022-08-19T10:44:31;42.18;37.51;49.12;;
49215;Laerm;45943;53.148;8.204;2022-08-19T10:46:57;43.78;39.71;49.67;;
49215;Laerm;45943;53.148;8.204;2022-08-19T10:49:24;52.61;39.12;74.93;;
49215;Laerm;45943;53.148;8.204;2022-08-19T10:51:50;56.03;39.81;74.68;;
49215;Laerm;45943;53.148;8.204;2022-08-19T10:54:35;42.63;38.97;60.35;;
49215;Laerm;45943;53.148;8.204;2022-08-19T10:57:19;43.05;39.81;55.54;;
49215;Laerm;45943;53.148;8.204;2022-08-19T10:59:45;55.02;40.30;76.13;;
49215;Laerm;45943;53.148;8.204;2022-08-19T11:02:12;55.90;39.94;66.52;;
49215;Laerm;45943;53.148;8.204;2022-08-19T11:04:40;55.75;38.48;65.00;;
49215;Laerm;45943;53.148;8.204;2022-08-19T11:07:07;57.20;39.81;70.87;;
49215;Laerm;45943;53.148;8.204;2022-08-19T11:09:42;57.05;39.27;72.96;;
49215;Laerm;45943;53.148;8.204;2022-08-19T11:12:09;59.31;38.65;73.51;;
49215;Laerm;45943;53.148;8.204;2022-08-19T11:14:38;58.75;40.30;78.85;;
49215;Laerm;45943;53.148;8.204;2022-08-19T11:17:04;55.68;38.97;67.61;;
49215;Laerm;45943;53.148;8.204;2022-08-19T11:19:31;50.21;37.72;60.31;;
49215;Laerm;45943;53.148;8.204;2022-08-19T11:21:57;59.47;40.30;76.30;;
49215;Laerm;45943;53.148;8.204;2022-08-19T11:24:24;56.63;39.95;74.02;;
49215;Laerm;45943;53.148;8.204;2022-08-19T11:26:53;57.03;39.68;69.28;;
49215;Laerm;45943;53.148;8.204;2022-08-19T11:29:22;52.70;39.55;60.20;;
49215;Laerm;45943;53.148;8.204;2022-08-19T11:31:51;51.51;39.41;64.33;;
49215;Laerm;45943;53.148;8.204;2022-08-19T11:34:21;51.84;39.12;69.85;;
49215;Laerm;45943;53.148;8.204;2022-08-19T11:36:49;50.75;38.48;69.37;;
49215;Laerm;45943;53.148;8.204;2022-08-19T11:39:18;52.01;41.22;68.21;;
49215;Laerm;45943;53.148;8.204;2022-08-19T11:41:44;44.34;39.55;59.39;;
49215;Laerm;45943;53.148;8.204;2022-08-19T11:44:10;52.36;40.93;61.65;;
49215;Laerm;45943;53.148;8.204;2022-08-19T11:46:40;51.40;38.12;57.65;;
49215;Laerm;45943;53.148;8.204;2022-08-19T11:49:07;55.73;39.94;64.79;;
49215;Laerm;45943;53.148;8.204;2022-08-19T11:51:35;58.24;40.52;76.07;;
49215;Laerm;45943;53.148;8.204;2022-08-19T11:54:02;62.18;48.37;75.91;;
49215;Laerm;45943;53.148;8.204;2022-08-19T11:56:29;51.47;40.63;65.56;;
49215;Laerm;45943;53.148;8.204;2022-08-19T11:58:55;58.04;39.81;73.11;;
49215;Laerm;45943;53.148;8.204;2022-08-19T12:01:25;50.93;39.41;64.74;;
49215;Laerm;45943;53.148;8.204;2022-08-19T12:03:53;54.79;39.55;62.93;;
49215;Laerm;45943;53.148;8.204;2022-08-19T12:06:25;51.86;41.03;61.98;;
49215;Laerm;45943;53.148;8.204;2022-08-19T12:08:55;49.66;40.63;55.85;;
49215;Laerm;45943;53.148;8.204;2022-08-19T12:11:22;55.27;39.41;71.77;;
49215;Laerm;45943;53.148;8.204;2022-08-19T12:13:49;48.96;40.30;65.41;;
49215;Laerm;45943;53.148;8.204;2022-08-19T12:16:24;46.57;39.68;57.12;;
49215;Laerm;45943;53.148;8.204;2022-08-19T12:18:50;47.63;40.30;59.78;;
49215;Laerm;45943;53.148;8.204;2022-08-19T12:21:20;46.72;39.12;54.49;;
49215;Laerm;45943;53.148;8.204;2022-08-19T12:23:48;50.73;39.55;71.02;;
49215;Laerm;45943;53.148;8.204;2022-08-19T12:26:15;62.96;40.06;78.84;;
49215;Laerm;45943;53.148;8.204;2022-08-19T12:28:42;51.83;39.12;72.01;;
49215;Laerm;45943;53.148;8.204;2022-08-19T12:31:09;55.10;39.41;78.23;;
49215;Laerm;45943;53.148;8.204;2022-08-19T12:33:38;53.83;39.55;85.05;;
49215;Laerm;45943;53.148;8.204;2022-08-19T12:36:06;53.09;38.48;81.16;;
49215;Laerm;45943;53.148;8.204;2022-08-19T12:38:33;47.20;39.41;66.53;;
49215;Laerm;45943;53.148;8.204;2022-08-19T12:41:02;56.94;39.81;75.27;;
49215;Laerm;45943;53.148;8.204;2022-08-19T12:43:33;62.13;51.85;70.08;;
49215;Laerm;45943;53.148;8.204;2022-08-19T12:46:01;68.68;52.42;88.95;;
49215;Laerm;45943;53.148;8.204;2022-08-19T12:48:28;64.17;52.57;75.84;;
49215;Laerm;45943;53.148;8.204;2022-08-19T12:50:54;58.76;53.14;74.27;;
49215;Laerm;45943;53.148;8.204;2022-08-19T12:53:20;64.91;58.53;74.04;;
49215;Laerm;45943;53.148;8.204;2022-08-19T12:55:46;62.51;54.10;81.14;;
49215;Laerm;45943;53.148;8.204;2022-08-19T12:58:12;64.59;54.90;77.10;;
49215;Laerm;45943;53.148;8.204;2022-08-19T13:00:39;60.83;53.46;75.81;;
49215;Laerm;45943;53.148;8.204;2022-08-19T13:03:05;60.40;56.65;75.60;;
49215;Laerm;45943;53.148;8.204;2022-08-19T13:05:32;59.87;56.51;71.25;;
49215;Laerm;45943;53.148;8.204;2022-08-19T13:08:00;61.15;56.29;78.28;;
49215;Laerm;45943;53.148;8.204;2022-08-19T13:10:29;64.94;57.68;75.90;;
49215;Laerm;45943;53.148;8.204;2022-08-19T13:12:56;60.08;54.81;70.67;;
49215;Laerm;45943;53.148;8.204;2022-08-19T13:15:23;61.74;57.53;74.72;;
49215;Laerm;45943;53.148;8.204;2022-08-19T13:17:50;63.33;56.77;75.38;;
49215;Laerm;45943;53.148;8.204;2022-08-19T13:20:19;64.15;54.80;75.72;;
49215;Laerm;45943;53.148;8.204;2022-08-19T13:22:46;62.63;55.50;73.06;;
49215;Laerm;45943;53.148;8.204;2022-08-19T13:25:13;69.49;56.18;85.32;;
49215;Laerm;45943;53.148;8.204;2022-08-19T13:27:40;68.90;56.23;82.86;;
49215;Laerm;45943;53.148;8.204;2022-08-19T13:30:08;64.48;54.22;81.78;;
49215;Laerm;45943;53.148;8.204;2022-08-19T13:32:53;78.41;55.27;90.34;;
49215;Laerm;45943;53.148;8.204;2022-08-19T13:35:53;71.66;55.39;83.66;;
49215;Laerm;45943;53.148;8.204;2022-08-19T13:38:23;68.09;56.62;84.73;;
49215;Laerm;45943;53.148;8.204;2022-08-19T13:40:51;64.99;57.63;73.47;;
49215;Laerm;45943;53.148;8.204;2022-08-19T13:43:19;67.15;57.89;81.60;;
49215;Laerm;45943;53.148;8.204;2022-08-19T13:45:48;71.32;54.70;84.30;;
49215;Laerm;45943;53.148;8.204;2022-08-19T13:48:14;62.20;54.49;75.81;;
49215;Laerm;45943;53.148;8.204;2022-08-19T13:50:43;64.03;55.80;74.94;;
49215;Laerm;45943;53.148;8.204;2022-08-19T13:53:10;67.99;55.42;80.80;;
49215;Laerm;45943;53.148;8.204;2022-08-19T13:55:39;65.98;52.04;74.31;;
49215;Laerm;45943;53.148;8.204;2022-08-19T13:58:05;68.34;52.34;84.55;;